Time;durP1;ratioP1;P1;durP2;ratioP2;P2;SDS_P1;SDS_P2;PMS_P1;PMS_P2;Temp;Humidity;BMP_temperature;BMP_pressure;BME280_temperature;BME280_humidity;BME280_pressure;Samples;Min_cycle;Max_cycle;Signal;HPM_P1;HPM_P2
2021/12/26 00:04:44;;;;;;;10.57;4.68;;;5.30;98.20;;;;;;10118831;28;20649;-67
2021/12/26 00:09:35;;;;;;;7.57;4.70;;;5.40;97.90;;;;;;10120882;28;20028;-65
2021/12/26 00:14:25;;;;;;;9.32;4.78;;;5.40;98.00;;;;;;10114898;28;20035;-67
2021/12/26 00:19:17;;;;;;;10.60;4.45;;;5.30;98.10;;;;;;10125150;28;20063;-64
2021/12/26 00:24:07;;;;;;;8.52;4.80;;;5.30;98.00;;;;;;10091166;28;20036;-64
2021/12/26 00:29:00;;;;;;;7.32;3.45;;;5.20;98.00;;;;;;10110483;28;20040;-65
2021/12/26 00:33:50;;;;;;;8.80;4.05;;;5.20;98.00;;;;;;10097427;28;20097;-65
2021/12/26 00:38:41;;;;;;;8.07;3.67;;;5.20;97.90;;;;;;10127026;28;20046;-62
2021/12/26 00:43:32;;;;;;;7.22;3.50;;;5.20;98.10;;;;;;10123602;28;20066;-63
2021/12/26 00:48:23;;;;;;;8.68;4.50;;;5.20;98.00;;;;;;10123130;28;20531;-65
2021/12/26 00:53:14;;;;;;;8.25;3.80;;;5.20;98.10;;;;;;10115605;28;20050;-64
2021/12/26 00:58:04;;;;;;;7.85;3.47;;;5.30;98.00;;;;;;10113334;28;20033;-64
2021/12/26 01:02:57;;;;;;;5.55;3.40;;;5.20;97.90;;;;;;10119075;28;20039;-64
2021/12/26 01:12:42;;;;;;;5.18;3.22;;;5.00;98.20;;;;;;10118578;28;20036;-67
2021/12/26 01:17:34;;;;;;;7.18;4.18;;;5.00;98.10;;;;;;10136921;28;20093;-64
2021/12/26 01:22:26;;;;;;;7.15;3.38;;;5.20;98.00;;;;;;10166026;28;20115;-64
2021/12/26 01:27:16;;;;;;;4.30;3.22;;;5.20;98.00;;;;;;10157283;28;20244;-66
2021/12/26 01:32:07;;;;;;;5.88;3.53;;;5.20;97.90;;;;;;10155568;28;20266;-67
2021/12/26 01:36:58;;;;;;;7.70;3.63;;;5.10;97.90;;;;;;10161609;28;20028;-65
2021/12/26 01:41:49;;;;;;;5.90;3.40;;;5.10;98.00;;;;;;10163217;28;20043;-64
2021/12/26 01:46:41;;;;;;;8.80;4.47;;;5.30;97.90;;;;;;10161172;28;20020;-64
2021/12/26 01:51:31;;;;;;;7.68;3.22;;;5.30;97.80;;;;;;10154895;28;20534;-67
2021/12/26 01:56:22;;;;;;;7.85;4.00;;;5.20;97.80;;;;;;10169707;28;20039;-64
2021/12/26 02:01:13;;;;;;;5.80;3.47;;;5.10;98.00;;;;;;10155562;28;20388;-67
2021/12/26 02:06:06;;;;;;;6.95;3.05;;;5.30;98.00;;;;;;10164274;28;20557;-63
2021/12/26 02:11:00;;;;;;;5.80;2.80;;;5.30;97.90;;;;;;10151995;28;20028;-65
2021/12/26 02:15:52;;;;;;;5.35;3.00;;;5.20;97.80;;;;;;10141690;28;20032;-64
2021/12/26 02:31:05;;;;;;;9.15;4.03;;;4.90;98.10;;;;;;10069664;28;20504;-66
2021/12/26 02:35:56;;;;;;;8.23;3.75;;;5.00;98.00;;;;;;10121361;28;20036;-65
2021/12/26 02:40:48;;;;;;;9.40;4.15;;;5.10;97.80;;;;;;10121405;28;20579;-64
2021/12/26 02:45:39;;;;;;;6.03;3.63;;;5.20;97.80;;;;;;10124600;28;20463;-67
2021/12/26 02:50:31;;;;;;;8.13;4.38;;;5.20;97.80;;;;;;10121055;28;20021;-70
2021/12/26 02:55:23;;;;;;;11.82;4.80;;;5.20;97.70;;;;;;10110959;28;20146;-64
2021/12/26 03:00:17;;;;;;;7.68;4.22;;;5.10;97.70;;;;;;10100899;28;20457;-64
2021/12/26 03:05:08;;;;;;;6.03;3.97;;;5.10;97.90;;;;;;10118812;28;20021;-63
2021/12/26 03:10:00;;;;;;;8.10;4.20;;;5.10;97.80;;;;;;10118632;28;20044;-64
2021/12/26 03:14:50;;;;;;;10.43;4.32;;;5.20;97.80;;;;;;10116335;28;20407;-68
2021/12/26 03:19:41;;;;;;;6.57;3.38;;;5.20;97.70;;;;;;10117932;28;20048;-63
2021/12/26 03:24:32;;;;;;;10.25;4.20;;;5.20;97.80;;;;;;10100731;28;20021;-67
2021/12/26 03:29:23;;;;;;;9.57;4.60;;;5.20;97.80;;;;;;10112828;28;20024;-62
2021/12/26 03:34:14;;;;;;;8.88;4.05;;;5.20;97.80;;;;;;10119881;28;20180;-64
2021/12/26 03:39:05;;;;;;;8.50;3.67;;;5.10;97.80;;;;;;10100187;28;20115;-64
2021/12/26 03:43:56;;;;;;;7.85;3.55;;;5.00;97.90;;;;;;10121478;28;20264;-62
2021/12/26 03:48:47;;;;;;;7.50;4.68;;;5.00;97.90;;;;;;10119641;28;20039;-64
2021/12/26 03:53:37;;;;;;;7.80;3.97;;;5.10;97.90;;;;;;10110656;28;20029;-64
2021/12/26 03:58:28;;;;;;;7.55;4.38;;;5.10;97.80;;;;;;10120723;28;20036;-66
2021/12/26 04:03:19;;;;;;;8.27;4.53;;;5.10;97.70;;;;;;10114810;28;20049;-65
2021/12/26 04:08:10;;;;;;;9.35;3.90;;;5.00;97.80;;;;;;10107190;28;20028;-64
2021/12/26 04:13:01;;;;;;;6.32;4.32;;;5.00;97.80;;;;;;10123969;28;20029;-66
2021/12/26 04:17:55;;;;;;;7.65;3.90;;;4.90;98.00;;;;;;10125265;28;20044;-63
2021/12/26 04:22:45;;;;;;;9.50;4.65;;;5.00;97.90;;;;;;10124969;28;20032;-65
2021/12/26 04:27:36;;;;;;;7.30;4.22;;;5.10;97.80;;;;;;10119386;28;20431;-63
2021/12/26 04:32:27;;;;;;;5.53;3.80;;;5.10;97.80;;;;;;10118641;28;20403;-64
2021/12/26 04:37:18;;;;;;;8.15;4.60;;;5.10;97.80;;;;;;10126314;28;20094;-64
2021/12/26 04:42:09;;;;;;;9.35;4.32;;;5.00;97.70;;;;;;10116696;28;20040;-64
2021/12/26 04:47:00;;;;;;;10.07;4.32;;;4.90;97.70;;;;;;10124571;28;20066;-64
2021/12/26 04:51:51;;;;;;;7.88;3.95;;;4.90;98.00;;;;;;10129802;28;20237;-63
2021/12/26 04:56:42;;;;;;;7.72;4.05;;;4.90;97.90;;;;;;10128272;28;20037;-64
2021/12/26 05:01:33;;;;;;;7.03;3.45;;;4.90;97.90;;;;;;10114964;28;20040;-63
2021/12/26 05:06:27;;;;;;;11.60;4.25;;;4.90;97.90;;;;;;10124738;28;20017;-63
2021/12/26 05:11:17;;;;;;;9.00;4.28;;;4.90;97.90;;;;;;10122179;28;20027;-65
2021/12/26 05:16:08;;;;;;;8.77;4.80;;;5.00;97.70;;;;;;10126893;28;20048;-63
2021/12/26 05:20:59;;;;;;;9.23;4.72;;;5.10;97.70;;;;;;10120919;28;20502;-63
2021/12/26 05:25:49;;;;;;;9.60;4.88;;;5.00;97.70;;;;;;10101726;28;20108;-64
2021/12/26 05:30:40;;;;;;;11.07;5.20;;;5.00;97.80;;;;;;10125220;28;20584;-63
2021/12/26 05:35:31;;;;;;;8.10;4.22;;;5.10;97.60;;;;;;10121136;28;20021;-63
2021/12/26 05:40:22;;;;;;;8.15;4.32;;;5.20;97.70;;;;;;10114145;28;20679;-63
2021/12/26 05:45:13;;;;;;;9.63;5.03;;;5.10;97.60;;;;;;10107388;28;20027;-63
2021/12/26 05:50:06;;;;;;;10.10;5.28;;;5.20;97.70;;;;;;10095344;28;20060;-64
2021/12/26 05:54:57;;;;;;;11.45;4.85;;;5.20;97.70;;;;;;10113154;28;20024;-63
2021/12/26 05:59:47;;;;;;;11.18;4.70;;;5.10;97.70;;;;;;10128920;28;20403;-63
2021/12/26 06:04:39;;;;;;;10.60;4.18;;;5.00;97.70;;;;;;10123186;28;20033;-63
2021/12/26 06:09:30;;;;;;;10.93;4.60;;;5.00;97.70;;;;;;10112290;28;20033;-64
2021/12/26 06:14:21;;;;;;;9.45;5.25;;;5.00;97.80;;;;;;10120406;28;20032;-64
2021/12/26 06:19:11;;;;;;;13.32;4.60;;;4.90;97.90;;;;;;10113124;28;20113;-66
2021/12/26 06:24:02;;;;;;;11.90;5.35;;;5.00;98.00;;;;;;10128215;28;20454;-64
2021/12/26 06:28:53;;;;;;;13.35;6.90;;;5.10;97.80;;;;;;10121496;28;20089;-65
2021/12/26 06:33:46;;;;;;;12.02;5.60;;;5.10;97.70;;;;;;10119875;28;20033;-72
2021/12/26 06:38:38;;;;;;;11.80;5.15;;;5.20;97.80;;;;;;10113436;28;20036;-68
2021/12/26 06:43:29;;;;;;;12.77;5.38;;;5.10;97.70;;;;;;10122294;28;20059;-64
2021/12/26 06:48:21;;;;;;;10.55;5.30;;;5.10;97.70;;;;;;10107976;28;20059;-64
2021/12/26 06:53:12;;;;;;;12.63;5.72;;;5.10;97.80;;;;;;10111212;28;20139;-67
2021/12/26 06:58:03;;;;;;;15.45;5.88;;;5.00;97.80;;;;;;10110501;28;20035;-68
2021/12/26 07:02:54;;;;;;;13.13;5.88;;;5.10;97.70;;;;;;10105539;28;20035;-64
2021/12/26 07:07:44;;;;;;;12.05;5.82;;;5.10;97.80;;;;;;10108953;28;20051;-64
2021/12/26 07:12:35;;;;;;;14.23;6.40;;;5.10;97.70;;;;;;10113638;28;20020;-64
2021/12/26 07:17:26;;;;;;;11.80;6.45;;;5.10;97.80;;;;;;10127672;28;20111;-65
2021/12/26 07:22:17;;;;;;;15.23;7.53;;;5.10;97.80;;;;;;10125972;28;20460;-64
2021/12/26 07:27:08;;;;;;;15.85;6.18;;;5.10;97.70;;;;;;10100162;28;20081;-63
2021/12/26 07:31:58;;;;;;;16.42;7.05;;;5.10;97.80;;;;;;10118297;28;20060;-65
2021/12/26 07:36:49;;;;;;;14.77;6.20;;;5.10;97.70;;;;;;10114874;28;20514;-61
2021/12/26 07:41:40;;;;;;;14.52;7.00;;;5.20;97.70;;;;;;10120831;28;20060;-64
2021/12/26 07:46:31;;;;;;;11.45;5.85;;;5.20;97.70;;;;;;10123834;28;20029;-65
2021/12/26 07:51:22;;;;;;;11.82;6.38;;;5.20;97.80;;;;;;10118001;28;20035;-64
2021/12/26 07:56:14;;;;;;;15.68;6.78;;;5.20;97.90;;;;;;10105154;28;20051;-70
2021/12/26 08:01:05;;;;;;;14.45;6.88;;;5.30;97.70;;;;;;10127274;28;20055;-68
2021/12/26 08:05:55;;;;;;;14.25;6.25;;;5.30;97.80;;;;;;10120126;28;20015;-69
2021/12/26 08:10:46;;;;;;;11.95;6.28;;;5.40;97.70;;;;;;10124791;28;20103;-66
2021/12/26 08:15:37;;;;;;;14.20;5.88;;;5.30;97.70;;;;;;10105155;28;20029;-63
2021/12/26 08:20:28;;;;;;;16.23;7.47;;;5.40;97.80;;;;;;10119908;28;20449;-68
2021/12/26 08:25:18;;;;;;;14.60;6.43;;;5.50;97.70;;;;;;10097317;28;20082;-63
2021/12/26 08:30:10;;;;;;;15.05;7.03;;;5.40;97.70;;;;;;10099132;28;20032;-65
2021/12/26 08:35:04;;;;;;;16.55;7.38;;;5.40;97.80;;;;;;10116665;28;20051;-67
2021/12/26 08:39:55;;;;;;;15.20;6.47;;;5.50;97.80;;;;;;10111635;28;20093;-66
2021/12/26 08:44:45;;;;;;;25.10;9.40;;;5.50;97.70;;;;;;10111592;28;20073;-65
2021/12/26 08:49:37;;;;;;;16.55;7.60;;;5.60;97.80;;;;;;10097658;28;20499;-64
2021/12/26 08:54:29;;;;;;;17.95;7.30;;;5.60;97.70;;;;;;10116161;28;20053;-65
2021/12/26 08:59:24;;;;;;;19.40;8.27;;;5.60;97.80;;;;;;10118562;28;20032;-65
2021/12/26 09:04:14;;;;;;;17.50;7.18;;;5.70;97.70;;;;;;10121308;28;20425;-70
2021/12/26 09:09:05;;;;;;;17.48;7.80;;;5.70;97.70;;;;;;10121531;28;20116;-68
2021/12/26 09:13:56;;;;;;;20.25;8.38;;;5.60;97.70;;;;;;10132480;28;20032;-64
2021/12/26 09:18:47;;;;;;;15.00;6.32;;;5.60;97.80;;;;;;10120353;28;20057;-69
2021/12/26 09:23:38;;;;;;;17.65;7.35;;;5.60;97.80;;;;;;10123709;28;20107;-66
2021/12/26 09:28:29;;;;;;;16.98;6.55;;;5.60;97.90;;;;;;10131630;28;20797;-65
2021/12/26 09:33:20;;;;;;;19.27;7.53;;;5.60;97.70;;;;;;10117156;28;20790;-64
2021/12/26 09:38:10;;;;;;;17.52;6.68;;;5.70;97.80;;;;;;10122796;28;20455;-63
2021/12/26 09:43:01;;;;;;;17.23;7.45;;;5.80;97.60;;;;;;10116572;28;20028;-64
2021/12/26 09:47:52;;;;;;;19.55;7.97;;;5.80;97.80;;;;;;10115953;28;20036;-64
2021/12/26 09:52:44;;;;;;;17.10;6.55;;;5.80;97.70;;;;;;10122854;28;20222;-64
2021/12/26 09:57:35;;;;;;;17.77;7.35;;;5.80;97.70;;;;;;10119935;28;20549;-67
2021/12/26 10:02:28;;;;;;;18.58;7.85;;;5.80;97.80;;;;;;10127087;28;20181;-64
2021/12/26 10:07:22;;;;;;;18.77;7.53;;;6.00;97.70;;;;;;10123900;28;20025;-68
2021/12/26 10:12:14;;;;;;;20.40;9.63;;;6.20;97.50;;;;;;10121526;28;20025;-62
2021/12/26 10:17:14;;;;;;;17.83;7.82;;;6.30;97.30;;;;;;10099013;28;20069;-64
2021/12/26 10:22:06;;;;;;;17.55;7.03;;;6.40;97.40;;;;;;10109071;28;20410;-64
2021/12/26 10:27:00;;;;;;;18.88;8.15;;;6.40;97.40;;;;;;10090333;28;20064;-67
2021/12/26 10:31:58;;;;;;;12.95;7.72;;;6.40;97.60;;;;;;10122990;28;20020;-64
2021/12/26 10:36:51;;;;;;;17.05;7.07;;;6.50;97.50;;;;;;10124234;28;20035;-66
2021/12/26 10:41:43;;;;;;;19.90;7.82;;;6.40;97.70;;;;;;10115967;28;20292;-64
2021/12/26 10:46:35;;;;;;;13.88;7.07;;;6.40;97.70;;;;;;10125651;28;20098;-63
2021/12/26 10:51:35;;;;;;;16.42;6.47;;;6.50;97.50;;;;;;10126699;28;20024;-73
2021/12/26 10:56:26;;;;;;;14.30;6.45;;;6.50;97.50;;;;;;10124710;28;20033;-62
2021/12/26 11:01:16;;;;;;;20.15;7.43;;;6.50;97.40;;;;;;10115101;28;20033;-66
2021/12/26 11:06:07;;;;;;;15.85;6.45;;;6.50;97.50;;;;;;10125271;28;20082;-64
2021/12/26 11:11:07;;;;;;;18.05;7.68;;;6.60;97.50;;;;;;10104067;28;20044;-74
2021/12/26 11:16:00;;;;;;;15.75;7.95;;;6.80;97.50;;;;;;10116694;28;20359;-72
2021/12/26 11:21:00;;;;;;;15.25;6.78;;;7.00;97.70;;;;;;10112659;28;20074;-69
2021/12/26 11:26:01;;;;;;;14.40;6.13;;;6.90;97.40;;;;;;10116895;28;20097;-66
2021/12/26 11:30:53;;;;;;;13.60;6.78;;;6.80;97.50;;;;;;10122498;28;20064;-63
2021/12/26 11:35:44;;;;;;;16.70;6.70;;;6.80;97.50;;;;;;10120411;28;20040;-64
2021/12/26 11:40:36;;;;;;;15.38;6.80;;;6.90;97.40;;;;;;10115015;28;20029;-63
2021/12/26 11:45:40;;;;;;;17.52;7.60;;;7.00;97.40;;;;;;10104365;28;20059;-62
2021/12/26 11:51:12;;;;;;;17.42;7.82;;;6.90;97.50;;;;;;10123393;28;20029;-67
2021/12/26 11:56:16;;;;;;;20.00;8.13;;;6.80;97.60;;;;;;10118653;28;20061;-66
2021/12/26 12:01:14;;;;;;;14.27;7.25;;;6.90;97.60;;;;;;10109488;28;20041;-63
2021/12/26 12:06:05;;;;;;;18.58;8.05;;;6.80;97.50;;;;;;10123878;28;20146;-67
2021/12/26 12:11:08;;;;;;;15.05;7.28;;;6.90;97.50;;;;;;10126892;28;20520;-62
2021/12/26 12:16:26;;;;;;;12.35;7.35;;;7.00;97.40;;;;;;10111342;28;20478;-76
2021/12/26 12:21:22;;;;;;;16.23;8.88;;;6.80;97.50;;;;;;10112812;28;20135;-66
2021/12/26 12:26:39;;;;;;;17.42;8.10;;;6.80;97.60;;;;;;10118299;28;20017;-66
2021/12/26 12:31:30;;;;;;;;;;;6.80;97.50;;;;;;10133033;28;20039;-62
2021/12/26 12:36:27;;;;;;;20.80;7.78;;;6.90;97.50;;;;;;10128234;28;20358;-69
2021/12/26 12:41:30;;;;;;;18.35;7.75;;;7.10;97.20;;;;;;10119840;28;20044;-68
2021/12/26 12:46:21;;;;;;;19.35;8.38;;;7.10;97.20;;;;;;10121110;28;20025;-63
2021/12/26 12:51:15;;;;;;;18.95;8.35;;;7.10;97.20;;;;;;10119205;28;20076;-63
2021/12/26 12:56:07;;;;;;;24.65;9.05;;;7.10;97.40;;;;;;10121885;28;20382;-63
2021/12/26 13:01:00;;;;;;;24.35;10.35;;;7.10;97.40;;;;;;10122304;28;20037;-67
2021/12/26 13:05:52;;;;;;;25.20;9.20;;;7.10;97.40;;;;;;10128258;28;20523;-60
2021/12/26 13:10:53;;;;;;;18.50;9.15;;;7.10;97.40;;;;;;10108763;28;20062;-69
2021/12/26 13:15:55;;;;;;;21.27;8.82;;;7.10;97.30;;;;;;10129213;28;20045;-70
2021/12/26 13:20:54;;;;;;;19.25;7.63;;;6.90;97.50;;;;;;10087034;28;20091;-62
2021/12/26 13:25:46;;;;;;;20.98;9.68;;;7.10;97.30;;;;;;10126031;28;20029;-73
2021/12/26 13:30:42;;;;;;;27.30;9.57;;;7.10;97.20;;;;;;10108143;28;20059;-75
2021/12/26 13:35:35;;;;;;;22.42;10.40;;;6.90;97.20;;;;;;10121023;28;20021;-74
2021/12/26 13:40:34;;;;;;;21.55;9.15;;;6.90;97.30;;;;;;10119785;28;20055;-71
2021/12/26 13:45:33;;;;;;;19.73;9.07;;;6.80;97.30;;;;;;10107267;28;20032;-71
2021/12/26 13:50:25;;;;;;;16.38;7.65;;;6.80;97.30;;;;;;10124887;28;20036;-66
2021/12/26 13:55:16;;;;;;;18.33;8.40;;;6.80;97.20;;;;;;10107935;28;20032;-66
2021/12/26 14:00:07;;;;;;;20.92;8.93;;;6.80;97.00;;;;;;10122397;28;20044;-65
2021/12/26 14:05:05;;;;;;;24.17;8.95;;;6.60;97.30;;;;;;10122938;28;20028;-71
2021/12/26 14:09:58;;;;;;;20.92;9.00;;;6.50;97.60;;;;;;10113398;28;20021;-69
2021/12/26 14:14:49;;;;;;;23.20;8.10;;;6.50;97.50;;;;;;10127199;28;20020;-69
2021/12/26 14:19:40;;;;;;;19.50;7.47;;;6.50;97.60;;;;;;10098751;28;20110;-72
2021/12/26 14:24:32;;;;;;;18.17;6.70;;;6.40;97.80;;;;;;10117262;28;20120;-69
2021/12/26 14:29:24;;;;;;;18.17;7.45;;;6.40;97.80;;;;;;10118774;28;20020;-69
2021/12/26 14:34:25;;;;;;;16.20;6.43;;;6.30;98.00;;;;;;10123025;28;20393;-69
2021/12/26 14:39:24;;;;;;;20.92;9.50;;;6.30;97.90;;;;;;10121475;28;20040;-68
2021/12/26 14:44:18;;;;;;;17.15;6.80;;;6.40;97.80;;;;;;10119481;28;20052;-68
2021/12/26 14:49:12;;;;;;;13.68;6.78;;;6.50;97.70;;;;;;10101783;28;20495;-69
2021/12/26 14:54:05;;;;;;;16.70;6.20;;;6.40;97.80;;;;;;10123088;28;20032;-68
2021/12/26 14:58:56;;;;;;;15.02;5.82;;;6.40;97.80;;;;;;10114543;28;20492;-69
2021/12/26 15:03:47;;;;;;;18.50;6.55;;;6.50;97.80;;;;;;10128131;28;20029;-69
2021/12/26 15:08:38;;;;;;;12.52;5.57;;;6.60;97.80;;;;;;10104423;28;20066;-70
2021/12/26 15:13:38;;;;;;;12.05;6.45;;;6.60;97.60;;;;;;10119183;28;20052;-67
2021/12/26 15:18:32;;;;;;;15.45;6.32;;;6.70;97.70;;;;;;10121439;28;20056;-69
2021/12/26 15:23:23;;;;;;;12.77;5.60;;;6.70;97.70;;;;;;10120752;28;20360;-64
2021/12/26 15:28:19;;;;;;;18.63;7.38;;;6.70;97.80;;;;;;10125747;28;20525;-64
2021/12/26 15:33:10;;;;;;;11.00;5.43;;;6.70;97.70;;;;;;10111198;28;20590;-66
2021/12/26 15:38:01;;;;;;;12.15;6.03;;;6.60;97.70;;;;;;10090823;28;20040;-66
2021/12/26 15:42:53;;;;;;;12.75;5.68;;;6.60;97.80;;;;;;10115300;28;20021;-70
2021/12/26 15:47:44;;;;;;;12.95;4.90;;;6.60;97.80;;;;;;10119123;28;20491;-69
2021/12/26 15:52:35;;;;;;;13.05;5.90;;;6.60;97.90;;;;;;10114897;28;20039;-66
2021/12/26 15:57:25;;;;;;;12.27;4.75;;;6.60;97.80;;;;;;10118752;28;20515;-70
2021/12/26 16:02:16;;;;;;;12.00;4.57;;;6.60;97.90;;;;;;10116041;28;20032;-65
2021/12/26 16:07:07;;;;;;;10.93;5.00;;;6.60;97.80;;;;;;10118931;28;20021;-66
2021/12/26 16:11:57;;;;;;;12.00;5.35;;;6.60;97.90;;;;;;10130774;28;20033;-68
2021/12/26 16:16:48;;;;;;;8.18;3.95;;;6.60;97.90;;;;;;10125811;28;20060;-64
2021/12/26 16:21:40;;;;;;;8.65;4.13;;;6.70;97.80;;;;;;10109357;28;20083;-67
2021/12/26 16:26:31;;;;;;;8.73;4.28;;;6.70;97.90;;;;;;10131629;28;20013;-65
2021/12/26 16:31:22;;;;;;;10.88;4.50;;;6.70;97.90;;;;;;10129162;28;20041;-67
2021/12/26 16:36:13;;;;;;;8.65;4.70;;;6.70;97.80;;;;;;10126984;28;20032;-68
2021/12/26 16:41:09;;;;;;;11.95;5.00;;;6.70;97.90;;;;;;10113724;28;20449;-65
2021/12/26 16:46:00;;;;;;;9.40;4.93;;;6.80;98.00;;;;;;10127169;28;20024;-65
2021/12/26 16:50:51;;;;;;;10.95;4.53;;;6.70;98.00;;;;;;10120314;28;20033;-64
2021/12/26 16:55:42;;;;;;;7.40;4.18;;;6.70;98.00;;;;;;10120340;28;20021;-65
2021/12/26 17:00:34;;;;;;;10.25;4.57;;;6.70;98.10;;;;;;10126904;28;20040;-69
2021/12/26 17:05:24;;;;;;;10.90;6.10;;;6.70;98.10;;;;;;10126221;28;20063;-67
2021/12/26 17:10:17;;;;;;;13.10;7.18;;;6.70;98.10;;;;;;10125002;28;20067;-67
2021/12/26 17:15:08;;;;;;;13.98;6.88;;;6.80;98.10;;;;;;10128544;28;20187;-65
2021/12/26 17:19:59;;;;;;;15.07;6.65;;;6.70;98.00;;;;;;10129439;28;20465;-67
2021/12/26 17:24:50;;;;;;;14.30;7.05;;;6.70;98.10;;;;;;10127639;28;20075;-66
2021/12/26 17:29:41;;;;;;;15.98;7.28;;;6.80;98.10;;;;;;10099968;28;20025;-67
2021/12/26 17:34:31;;;;;;;46.40;19.38;;;6.90;98.20;;;;;;10127393;28;20021;-67
2021/12/26 17:39:22;;;;;;;34.88;15.57;;;6.90;98.00;;;;;;10099197;28;20033;-67
2021/12/26 17:44:13;;;;;;;16.90;8.27;;;6.90;98.10;;;;;;10118606;28;20467;-62
2021/12/26 17:49:04;;;;;;;11.75;5.88;;;7.00;98.10;;;;;;10121020;28;20128;-65
2021/12/26 17:53:55;;;;;;;12.82;6.50;;;7.00;98.00;;;;;;10127038;28;20024;-77
2021/12/26 17:58:45;;;;;;;11.93;5.78;;;7.00;98.00;;;;;;10136606;28;20441;-70
2021/12/26 18:03:38;;;;;;;16.20;7.20;;;7.00;98.20;;;;;;10126134;28;20021;-73
2021/12/26 18:08:29;;;;;;;11.15;6.28;;;7.00;98.10;;;;;;10119597;28;20559;-62
2021/12/26 18:13:20;;;;;;;14.02;7.05;;;7.00;98.10;;;;;;10122151;28;20025;-64
2021/12/26 18:18:11;;;;;;;14.85;8.23;;;7.10;98.30;;;;;;10119601;28;20067;-66
2021/12/26 18:23:03;;;;;;;15.35;7.85;;;7.10;98.20;;;;;;10126805;28;20032;-69
2021/12/26 18:27:54;;;;;;;17.95;8.00;;;7.10;98.10;;;;;;10123915;28;20115;-67
2021/12/26 18:32:47;;;;;;;25.98;9.52;;;7.10;98.20;;;;;;10120279;28;20025;-67
2021/12/26 18:37:38;;;;;;;16.50;8.63;;;7.40;98.10;;;;;;10116811;28;20200;-71
2021/12/26 18:42:29;;;;;;;15.02;7.13;;;7.40;98.00;;;;;;10105264;28;20040;-66
2021/12/26 18:47:20;;;;;;;11.45;6.65;;;7.20;98.20;;;;;;10119437;28;20017;-68
2021/12/26 18:52:11;;;;;;;9.88;5.57;;;7.20;98.20;;;;;;10123617;28;20029;-64
2021/12/26 18:57:02;;;;;;;16.92;6.20;;;7.10;98.40;;;;;;10096753;28;20486;-70
2021/12/26 19:01:53;;;;;;;12.48;6.53;;;7.10;98.40;;;;;;10117178;28;20444;-65
2021/12/26 19:06:44;;;;;;;12.30;6.15;;;7.10;98.30;;;;;;10116998;28;20028;-66
2021/12/26 19:11:35;;;;;;;14.27;6.55;;;7.20;98.30;;;;;;10096510;28;20035;-68
2021/12/26 19:16:27;;;;;;;11.27;5.60;;;7.20;98.30;;;;;;10119084;28;20052;-65
2021/12/26 19:21:18;;;;;;;12.57;5.88;;;7.20;98.40;;;;;;10126899;28;20050;-72
2021/12/26 19:26:10;;;;;;;16.35;7.63;;;7.20;98.40;;;;;;10123412;28;20513;-65
2021/12/26 19:31:02;;;;;;;18.90;10.05;;;7.10;98.40;;;;;;10121176;28;20021;-67
2021/12/26 19:35:55;;;;;;;13.82;7.53;;;7.10;98.40;;;;;;10114315;28;20092;-65
2021/12/26 19:40:46;;;;;;;15.02;7.93;;;7.10;98.40;;;;;;10118127;28;20048;-72
2021/12/26 19:45:37;;;;;;;18.23;8.52;;;7.10;98.50;;;;;;10114095;28;20406;-65
2021/12/26 19:50:28;;;;;;;17.70;7.47;;;7.10;98.50;;;;;;10121289;28;20072;-67
2021/12/26 19:55:19;;;;;;;17.83;7.53;;;7.20;98.50;;;;;;10100103;28;20025;-68
2021/12/26 20:00:10;;;;;;;17.95;9.18;;;7.20;98.40;;;;;;10126757;28;20037;-66
2021/12/26 20:05:02;;;;;;;20.20;8.88;;;7.20;98.40;;;;;;10110259;28;20021;-71
2021/12/26 20:09:53;;;;;;;17.42;9.95;;;7.20;98.50;;;;;;10116094;28;20029;-73
2021/12/26 20:14:44;;;;;;;15.95;8.20;;;7.20;98.50;;;;;;10096851;28;20025;-73
2021/12/26 20:19:34;;;;;;;35.67;14.30;;;7.20;98.70;;;;;;10121746;28;20094;-74
2021/12/26 20:24:25;;;;;;;24.05;10.90;;;7.20;98.40;;;;;;10117887;28;20034;-70
2021/12/26 20:29:16;;;;;;;16.70;9.20;;;7.20;98.50;;;;;;10097187;28;20025;-69
2021/12/26 20:34:08;;;;;;;28.15;12.43;;;7.10;98.50;;;;;;10112649;28;20031;-70
2021/12/26 20:38:58;;;;;;;22.42;10.05;;;7.10;98.50;;;;;;10123532;28;20071;-71
2021/12/26 20:43:51;;;;;;;19.70;8.27;;;7.20;98.50;;;;;;10099337;28;20025;-71
2021/12/26 20:48:42;;;;;;;17.58;7.82;;;7.30;98.40;;;;;;10114993;28;20090;-73
2021/12/26 20:53:34;;;;;;;21.52;9.88;;;7.30;98.40;;;;;;10130553;28;20061;-68
2021/12/26 20:58:25;;;;;;;14.65;7.07;;;7.30;98.40;;;;;;10135439;28;20032;-67
2021/12/26 21:03:17;;;;;;;17.02;7.10;;;7.30;98.40;;;;;;10124122;28;20662;-68
2021/12/26 21:08:08;;;;;;;14.23;7.07;;;7.30;98.60;;;;;;10110079;28;20474;-69
2021/12/26 21:12:59;;;;;;;16.00;8.45;;;7.20;98.50;;;;;;10114300;28;20052;-71
2021/12/26 21:17:52;;;;;;;14.93;6.65;;;7.10;98.70;;;;;;10149503;28;20040;-68
2021/12/26 21:22:46;;;;;;;14.65;7.53;;;7.20;98.70;;;;;;10154950;28;20102;-72
2021/12/26 21:27:37;;;;;;;18.75;9.52;;;7.20;98.60;;;;;;10148812;28;20020;-68
2021/12/26 21:32:28;;;;;;;16.77;9.13;;;7.20;98.60;;;;;;10161809;28;20375;-71
2021/12/26 21:37:19;;;;;;;18.58;8.98;;;7.30;98.60;;;;;;10157008;28;20503;-66
2021/12/26 21:42:09;;;;;;;18.63;9.20;;;7.10;98.70;;;;;;10158230;28;20040;-67
2021/12/26 21:47:03;;;;;;;21.98;9.73;;;7.00;99.00;;;;;;10166221;28;20050;-66
2021/12/26 21:51:54;;;;;;;21.38;10.52;;;7.00;99.10;;;;;;10135760;28;20178;-67
2021/12/26 21:56:46;;;;;;;18.77;9.13;;;7.00;99.00;;;;;;10168570;28;20167;-71
2021/12/26 22:01:36;;;;;;;22.30;9.95;;;7.10;98.90;;;;;;10163452;28;20040;-66
2021/12/26 22:06:28;;;;;;;20.83;9.20;;;7.20;98.90;;;;;;10168972;28;20047;-67
2021/12/26 22:11:19;;;;;;;23.55;9.38;;;7.30;98.70;;;;;;10137264;28;20024;-66
2021/12/26 22:16:12;;;;;;;16.95;9.82;;;7.30;98.70;;;;;;10148257;28;20041;-67
2021/12/26 22:21:03;;;;;;;24.05;9.45;;;7.40;98.60;;;;;;10120151;28;20021;-75
2021/12/26 22:25:54;;;;;;;23.88;9.80;;;7.30;98.80;;;;;;10121910;28;20033;-71
2021/12/26 22:30:45;;;;;;;21.30;10.10;;;7.40;98.80;;;;;;10100681;28;20037;-72
2021/12/26 22:35:37;;;;;;;26.60;10.82;;;7.40;98.70;;;;;;10093470;28;20025;-68
2021/12/26 22:40:27;;;;;;;25.52;10.48;;;7.50;98.80;;;;;;10108609;28;20039;-67
2021/12/26 22:45:18;;;;;;;21.13;9.45;;;7.50;98.70;;;;;;10119778;28;20025;-71
2021/12/26 22:50:14;;;;;;;25.55;10.55;;;7.50;98.80;;;;;;10113664;28;20032;-67
2021/12/26 22:55:05;;;;;;;19.67;9.23;;;7.60;98.70;;;;;;10119417;28;20036;-65
2021/12/26 22:59:56;;;;;;;23.33;9.98;;;7.60;98.70;;;;;;10127384;28;20403;-65
2021/12/26 23:04:47;;;;;;;18.42;9.15;;;7.70;98.70;;;;;;10121287;28;20021;-67
2021/12/26 23:09:38;;;;;;;13.35;7.57;;;7.60;98.70;;;;;;10115013;28;20021;-68
2021/12/26 23:14:29;;;;;;;16.05;8.23;;;7.70;98.80;;;;;;10113596;28;20232;-67
2021/12/26 23:19:22;;;;;;;20.50;7.72;;;7.60;98.70;;;;;;10120520;28;20422;-65
2021/12/26 23:24:12;;;;;;;13.70;7.32;;;7.70;98.80;;;;;;10109580;28;20430;-69
2021/12/26 23:29:04;;;;;;;15.18;6.82;;;7.70;98.80;;;;;;10117925;28;20098;-68
2021/12/26 23:33:55;;;;;;;18.33;7.13;;;7.70;98.80;;;;;;10121943;28;20017;-72
2021/12/26 23:38:46;;;;;;;11.60;5.95;;;7.80;98.80;;;;;;10113273;28;20473;-67
2021/12/26 23:43:38;;;;;;;13.13;6.40;;;7.80;98.80;;;;;;10116144;28;20025;-65
2021/12/26 23:48:29;;;;;;;9.18;6.25;;;7.70;98.80;;;;;;10089839;28;20372;-65
2021/12/26 23:53:20;;;;;;;10.00;5.90;;;7.80;98.90;;;;;;10126161;28;20029;-68
2021/12/26 23:58:11;;;;;;;13.20;6.30;;;7.80;99.10;;;;;;10122621;28;20083;-66
